Target — 9HA2149 — position and weather

sailwx.info

Track history (hours):
 
Tides and Currents Weather Stations Pressure Air Temp Water Temp Dewpoint Dewpoint Depression Visibility Wind Speed Wind Dir Waves Ship Positions

Target

Last reported at 2014-Nov-22 11:33 UTC. Time now 2014-Nov-22 16:27 UTC.
Position N 54°30' E 011°32'.

Length 250 m; draft 14.7 m.

Type: Tanker. MMSI: 248057000.

Date/timePositionNaut miles runAvg speedWind from/ knotsBaromVisibWave heightAir tempDewpointWater temp
2014-Nov-22 11:33N 54°30' E 011°32'1111.5
2014-Nov-22 10:34N 54°26' E 011°51'1110.7
2014-Nov-22 09:34N 54°26' E 012°09'1010.0
2014-Nov-22 08:33N 54°35' E 012°16'1110.6
2014-Nov-22 07:30N 54°42' E 012°32'7111.9
2014-Nov-22 01:33N 55°10' E 014°24'1212.4
2014-Nov-22 00:34N 55°18' E 014°41'9 9.2
2014-Nov-21 23:33N 55°20' E 014°57'8 8.4
2014-Nov-21 22:34N 55°28' E 015°04'1312.0
2014-Nov-21 21:31N 55°38' E 015°16'35311.3
2014-Nov-20 14:25N 59°38' E 023°19'1212.5
2014-Nov-20 13:27N 59°41' E 023°42'1212.5
2014-Nov-20 12:29N 59°44' E 024°06'1212.2
2014-Nov-20 11:28N 59°47' E 024°29'2812.2
2014-Nov-20 09:08N 59°53' E 025°25'711.8
2014-Nov-20 08:32N 59°54' E 025°38'2611.8
2014-Nov-20 06:20N 60°01' E 026°29'1111.5
2014-Nov-20 05:25N 60°00' E 026°50'  
2014-Nov-16 18:06N 60°02' E 027°18'812.9
2014-Nov-16 17:31N 59°58' E 027°05'1212.3
2014-Nov-16 16:33N 59°60' E 026°42'1312.6
2014-Nov-16 15:33N 59°56' E 026°18'5112.7
2014-Nov-16 11:33N 59°45' E 024°39'1312.7
2014-Nov-16 10:32N 59°42' E 024°15'1312.7
2014-Nov-16 09:33N 59°38' E 023°51'1312.8
2014-Nov-16 08:33N 59°34' E 023°27'1312.6
2014-Nov-16 07:33N 59°30' E 023°03'292 7.8
2014-Nov-14 18:18N 55°07' E 019°10'1013.6
2014-Nov-14 17:33N 54°57' E 019°06'1313.4
2014-Nov-14 16:33N 54°44' E 019°00'1313.2
2014-Nov-14 15:33N 54°32' E 018°49'6 5.9
2014-Nov-14 14:31N 54°27' E 018°43'0 0.0
2014-Nov-14 12:31N 54°27' E 018°43'0 0.0
2014-Nov-14 11:31N 54°27' E 018°43'0 0.0
2014-Nov-14 10:31N 54°27' E 018°43'0 0.0
2014-Nov-14 09:31N 54°27' E 018°43'0 0.0
2014-Nov-14 08:31N 54°27' E 018°43'0 0.0
2014-Nov-14 07:31N 54°27' E 018°43'0 0.0
2014-Nov-14 06:31N 54°27' E 018°43'0 0.0
2014-Nov-14 05:31N 54°27' E 018°43'0 0.0
2014-Nov-14 04:31N 54°27' E 018°43'0 0.0
2014-Nov-14 03:31N 54°27' E 018°43'0 0.0
2014-Nov-14 02:31N 54°27' E 018°43'0 0.0
2014-Nov-14 01:31N 54°27' E 018°43'0 0.0
2014-Nov-14 00:31N 54°27' E 018°43'0 0.0
2014-Nov-13 23:31N 54°27' E 018°43'0 0.0
2014-Nov-13 22:31N 54°27' E 018°43'0 0.0
2014-Nov-13 21:31N 54°27' E 018°43'0 0.0
2014-Nov-13 20:31N 54°27' E 018°43'0 0.0
2014-Nov-13 19:31N 54°27' E 018°43'0 0.0
2014-Nov-13 18:31N 54°27' E 018°43'0 0.0
2014-Nov-13 17:31N 54°27' E 018°43'0 0.0
2014-Nov-13 16:31N 54°27' E 018°43'0 0.0
2014-Nov-13 15:31N 54°27' E 018°43'0 0.0
2014-Nov-13 14:31N 54°27' E 018°43'0 0.1
2014-Nov-13 13:33N 54°27' E 018°43'3 3.2
2014-Nov-13 12:33N 54°25' E 018°39'2 2.1
2014-Nov-13 11:33N 54°23' E 018°39'0 0.1
2014-Nov-13 10:29N 54°23' E 018°39'0 0.0
2014-Nov-13 09:29N 54°23' E 018°39'0 0.0
2014-Nov-13 08:32N 54°23' E 018°39'0 0.0
2014-Nov-13 07:32N 54°23' E 018°39'0 0.0
2014-Nov-13 06:32N 54°23' E 018°39'0 0.0
2014-Nov-13 05:32N 54°23' E 018°39'0 0.0
2014-Nov-13 04:32N 54°23' E 018°39'0 0.0
2014-Nov-13 03:32N 54°23' E 018°39'0 0.0
2014-Nov-13 02:32N 54°23' E 018°39'0 0.0
2014-Nov-13 01:32N 54°23' E 018°39'0 0.0
2014-Nov-13 00:32N 54°23' E 018°39'0 0.0
2014-Nov-12 23:32N 54°23' E 018°39'0 0.0
2014-Nov-12 22:32N 54°23' E 018°39'0 0.0
2014-Nov-12 21:32N 54°23' E 018°39'0 0.0
2014-Nov-12 20:26N 54°23' E 018°39'0 0.0
2014-Nov-12 19:32N 54°23' E 018°39'0 0.0
2014-Nov-12 18:32N 54°23' E 018°39'0 0.0
2014-Nov-12 17:32N 54°23' E 018°39'0 0.0
2014-Nov-12 16:32N 54°23' E 018°39'0 0.0
2014-Nov-12 15:32N 54°23' E 018°39'0 0.0
2014-Nov-12 14:32N 54°23' E 018°39'0 0.0
2014-Nov-12 13:32N 54°23' E 018°39'0 0.0
2014-Nov-12 12:32N 54°23' E 018°39'  
Track history (hours):
 
Tides and Currents Weather Stations Pressure Air Temp Water Temp Dewpoint Dewpoint Depression Visibility Wind Speed Wind Dir Waves Ship Positions

Target

Last reported at 2014-Nov-22 11:33 UTC. Time now 2014-Nov-22 16:27 UTC.
Position N 54°30' E 011°32'.

Length 250 m; draft 14.7 m.

Type: Tanker. MMSI: 248057000.

Date/timePositionNaut miles runAvg speedWind from/ knotsBaromVisibWave heightAir tempDewpointWater temp
2014-Nov-22 11:33N 54°30' E 011°32'1111.5
2014-Nov-22 10:34N 54°26' E 011°51'1110.7
2014-Nov-22 09:34N 54°26' E 012°09'1010.0
2014-Nov-22 08:33N 54°35' E 012°16'1110.6
2014-Nov-22 07:30N 54°42' E 012°32'7111.9
2014-Nov-22 01:33N 55°10' E 014°24'1212.4
2014-Nov-22 00:34N 55°18' E 014°41'9 9.2
2014-Nov-21 23:33N 55°20' E 014°57'8 8.4
2014-Nov-21 22:34N 55°28' E 015°04'1312.0
2014-Nov-21 21:31N 55°38' E 015°16'35311.3
2014-Nov-20 14:25N 59°38' E 023°19'1212.5
2014-Nov-20 13:27N 59°41' E 023°42'1212.5
2014-Nov-20 12:29N 59°44' E 024°06'1212.2
2014-Nov-20 11:28N 59°47' E 024°29'2812.2
2014-Nov-20 09:08N 59°53' E 025°25'711.8
2014-Nov-20 08:32N 59°54' E 025°38'2611.8
2014-Nov-20 06:20N 60°01' E 026°29'1111.5
2014-Nov-20 05:25N 60°00' E 026°50'  
2014-Nov-16 18:06N 60°02' E 027°18'812.9
2014-Nov-16 17:31N 59°58' E 027°05'1212.3
2014-Nov-16 16:33N 59°60' E 026°42'1312.6
2014-Nov-16 15:33N 59°56' E 026°18'5112.7
2014-Nov-16 11:33N 59°45' E 024°39'1312.7
2014-Nov-16 10:32N 59°42' E 024°15'1312.7
2014-Nov-16 09:33N 59°38' E 023°51'1312.8
2014-Nov-16 08:33N 59°34' E 023°27'1312.6
2014-Nov-16 07:33N 59°30' E 023°03'292 7.8
2014-Nov-14 18:18N 55°07' E 019°10'1013.6
2014-Nov-14 17:33N 54°57' E 019°06'1313.4
2014-Nov-14 16:33N 54°44' E 019°00'1313.2
2014-Nov-14 15:33N 54°32' E 018°49'6 5.9
2014-Nov-14 14:31N 54°27' E 018°43'0 0.0
2014-Nov-14 12:31N 54°27' E 018°43'0 0.0
2014-Nov-14 11:31N 54°27' E 018°43'0 0.0
2014-Nov-14 10:31N 54°27' E 018°43'0 0.0
2014-Nov-14 09:31N 54°27' E 018°43'0 0.0
2014-Nov-14 08:31N 54°27' E 018°43'0 0.0
2014-Nov-14 07:31N 54°27' E 018°43'0 0.0
2014-Nov-14 06:31N 54°27' E 018°43'0 0.0
2014-Nov-14 05:31N 54°27' E 018°43'0 0.0
2014-Nov-14 04:31N 54°27' E 018°43'0 0.0
2014-Nov-14 03:31N 54°27' E 018°43'0 0.0
2014-Nov-14 02:31N 54°27' E 018°43'0 0.0
2014-Nov-14 01:31N 54°27' E 018°43'0 0.0
2014-Nov-14 00:31N 54°27' E 018°43'0 0.0
2014-Nov-13 23:31N 54°27' E 018°43'0 0.0
2014-Nov-13 22:31N 54°27' E 018°43'0 0.0
2014-Nov-13 21:31N 54°27' E 018°43'0 0.0
2014-Nov-13 20:31N 54°27' E 018°43'0 0.0
2014-Nov-13 19:31N 54°27' E 018°43'0 0.0
2014-Nov-13 18:31N 54°27' E 018°43'0 0.0
2014-Nov-13 17:31N 54°27' E 018°43'0 0.0
2014-Nov-13 16:31N 54°27' E 018°43'0 0.0
2014-Nov-13 15:31N 54°27' E 018°43'0 0.0
2014-Nov-13 14:31N 54°27' E 018°43'0 0.1
2014-Nov-13 13:33N 54°27' E 018°43'3 3.2
2014-Nov-13 12:33N 54°25' E 018°39'2 2.1
2014-Nov-13 11:33N 54°23' E 018°39'0 0.1
2014-Nov-13 10:29N 54°23' E 018°39'0 0.0
2014-Nov-13 09:29N 54°23' E 018°39'0 0.0
2014-Nov-13 08:32N 54°23' E 018°39'0 0.0
2014-Nov-13 07:32N 54°23' E 018°39'0 0.0
2014-Nov-13 06:32N 54°23' E 018°39'0 0.0
2014-Nov-13 05:32N 54°23' E 018°39'0 0.0
2014-Nov-13 04:32N 54°23' E 018°39'0 0.0
2014-Nov-13 03:32N 54°23' E 018°39'0 0.0
2014-Nov-13 02:32N 54°23' E 018°39'0 0.0
2014-Nov-13 01:32N 54°23' E 018°39'0 0.0
2014-Nov-13 00:32N 54°23' E 018°39'0 0.0
2014-Nov-12 23:32N 54°23' E 018°39'0 0.0
2014-Nov-12 22:32N 54°23' E 018°39'0 0.0
2014-Nov-12 21:32N 54°23' E 018°39'0 0.0
2014-Nov-12 20:26N 54°23' E 018°39'0 0.0
2014-Nov-12 19:32N 54°23' E 018°39'0 0.0
2014-Nov-12 18:32N 54°23' E 018°39'0 0.0
2014-Nov-12 17:32N 54°23' E 018°39'0 0.0
2014-Nov-12 16:32N 54°23' E 018°39'0 0.0
2014-Nov-12 15:32N 54°23' E 018°39'0 0.0
2014-Nov-12 14:32N 54°23' E 018°39'0 0.0
2014-Nov-12 13:32N 54°23' E 018°39'0 0.0
2014-Nov-12 12:32N 54°23' E 018°39'  

Dump ship's entire track history